Map Display - OSDI to OIAA
(last flight recorded 14-10-2019, 19:47 - Adrian Smith)

Aircraft Weights    Units : Maximums
Passengers :   70  
Cargo : kg 2,520 kg
Suggested Fuel Load : kg 13,370 kg
 
     
 
Dry Operating : 19,625 kg    
Total Payload : 0 kg 8,450 kg
 
Take Off : 22,914 kg 33,112 kg
 
Expected Landing : 20,753 kg ? kg

Adrian Smith,  DC4 ,  G-ARJY,  .

Route Distance Previous
Flights
Average
Duration
Average
Fuel Flow
Average
Fuel Use
OSDI - Damascus Intl, Syria
OIAA - Abadan, Iran
625 nm 1 03:06 705 kg/h 2,161 kg

Current weather :-
2019/10/14 18:24
TAF TAF OSDI 1418/1524 06015KT 4000 HZ FEW030 SCT100 PROB30
TEMPO 1418/1518 19015G25KT 5000 SHRA FEW025 CB BKN030 OVC100
2019/10/14 18:57
TAF TAF OIAA 141730Z 1418/1524 26008KT 7000 NSC
BECMG 1420/1422 4000 HZ/BR
BECMG 1506/1508 6000
TEMPO 1510/1516 32016KT FEW030CB SCT035 BKN090

Back to Virtual Airline